Terminal Aerodrome Forecast
Issued by NWS Paducah, KY

Home | Current Version | Previous Version | Graphics & Text | Print | Product List | Glossary On
Versions: 1 2 3 4 5 6 7 8 9 10 11 12 13 14 15 16 17 18
000
FTUS43 KPAH 090800 AAB
TAFPAH
TAF AMD
KPAH 090809Z 0908/1006 26003KT P6SM BKN200
     FM091500 32006KT P6SM FEW040
     FM100000 VRB02KT P6SM SKC=

USA.gov is the U.S. government's official web portal to all federal, state and local government web resources and services.